Terminal Aerodrome Forecast
Issued by NWS

Home | Current Version | Previous Version | Text Only | Print | Product List | Glossary On
Versions: 1 2 3 4 5 6 7 8 9 10 11 12 13 14 15 16 17 18
000
FTUS46 KMFR 311100
TAFOTH
TAF
KOTH 311126Z 3112/0112 01008KT 1SM BR OVC002
     FM311700 36008KT P6SM BKN004
     FM311900 36012G20KT P6SM SCT008
     FM312100 36018G30KT P6SM SKC
     FM010600 36012KT P6SM BKN007
     FM011100 35003KT 3SM BR OVC003=

USA.gov is the U.S. government's official web portal to all federal, state and local government web resources and services.